sensor_id;sensor_type;location;lat;lon;timestamp;pressure;altitude;pressure_sealevel;temperature
60615;BMP280;46444;45.590;5.284;2022-11-09T00:25:13;98558.19;;;16.35
60615;BMP280;46444;45.590;5.284;2022-11-09T00:27:38;98562.81;;;16.35
60615;BMP280;46444;45.590;5.284;2022-11-09T00:30:04;98559.81;;;16.36
60615;BMP280;46444;45.590;5.284;2022-11-09T00:32:30;98555.25;;;16.32
60615;BMP280;46444;45.590;5.284;2022-11-09T00:34:55;98554.47;;;16.31
60615;BMP280;46444;45.590;5.284;2022-11-09T00:37:20;98554.16;;;16.33
60615;BMP280;46444;45.590;5.284;2022-11-09T00:39:46;98562.00;;;16.29
60615;BMP280;46444;45.590;5.284;2022-11-09T00:42:11;98559.03;;;16.31
60615;BMP280;46444;45.590;5.284;2022-11-09T00:44:36;98562.81;;;16.30
60615;BMP280;46444;45.590;5.284;2022-11-09T00:47:01;98567.69;;;16.28
60615;BMP280;46444;45.590;5.284;2022-11-09T00:49:27;98563.94;;;16.24
60615;BMP280;46444;45.590;5.284;2022-11-09T00:51:52;98567.41;;;16.24
60615;BMP280;46444;45.590;5.284;2022-11-09T00:54:18;98575.50;;;16.24
60615;BMP280;46444;45.590;5.284;2022-11-09T00:56:43;98566.13;;;16.22
60615;BMP280;46444;45.590;5.284;2022-11-09T00:59:09;98567.47;;;16.19
60615;BMP280;46444;45.590;5.284;2022-11-09T01:01:35;98577.44;;;16.19
60615;BMP280;46444;45.590;5.284;2022-11-09T01:04:00;98573.41;;;16.16
60615;BMP280;46444;45.590;5.284;2022-11-09T01:06:26;98574.22;;;16.17
60615;BMP280;46444;45.590;5.284;2022-11-09T01:08:51;98582.00;;;16.18
60615;BMP280;46444;45.590;5.284;2022-11-09T01:11:18;98582.31;;;16.17
60615;BMP280;46444;45.590;5.284;2022-11-09T01:13:44;98592.53;;;16.15
60615;BMP280;46444;45.590;5.284;2022-11-09T01:16:12;98596.88;;;16.16
60615;BMP280;46444;45.590;5.284;2022-11-09T01:18:38;98596.34;;;16.14
60615;BMP280;46444;45.590;5.284;2022-11-09T01:21:05;98589.59;;;16.16
60615;BMP280;46444;45.590;5.284;2022-11-09T01:23:32;98595.25;;;16.15
60615;BMP280;46444;45.590;5.284;2022-11-09T01:26:03;98585.00;;;16.17
60615;BMP280;46444;45.590;5.284;2022-11-09T01:28:29;98590.16;;;16.13
60615;BMP280;46444;45.590;5.284;2022-11-09T01:31:00;98596.91;;;16.11
60615;BMP280;46444;45.590;5.284;2022-11-09T01:33:26;98593.63;;;16.14
60615;BMP280;46444;45.590;5.284;2022-11-09T01:35:51;98602.00;;;16.12
60615;BMP280;46444;45.590;5.284;2022-11-09T01:38:16;98600.69;;;16.10
60615;BMP280;46444;45.590;5.284;2022-11-09T01:40:42;98603.38;;;16.10
60615;BMP280;46444;45.590;5.284;2022-11-09T01:43:18;98603.38;;;16.10
60615;BMP280;46444;45.590;5.284;2022-11-09T01:45:47;98593.91;;;16.12
60615;BMP280;46444;45.590;5.284;2022-11-09T01:48:18;98601.47;;;16.10
60615;BMP280;46444;45.590;5.284;2022-11-09T01:50:50;98595.00;;;16.11
60615;BMP280;46444;45.590;5.284;2022-11-09T01:53:22;98594.47;;;16.09
60615;BMP280;46444;45.590;5.284;2022-11-09T01:55:51;98595.81;;;16.07
60615;BMP280;46444;45.590;5.284;2022-11-09T01:58:25;98601.22;;;16.07
60615;BMP280;46444;45.590;5.284;2022-11-09T02:00:52;98600.41;;;16.06
60615;BMP280;46444;45.590;5.284;2022-11-09T02:03:21;98589.91;;;16.05
60615;BMP280;46444;45.590;5.284;2022-11-09T02:05:49;98592.31;;;16.06
60615;BMP280;46444;45.590;5.284;2022-11-09T02:08:17;98585.63;;;16.04
60615;BMP280;46444;45.590;5.284;2022-11-09T02:11:07;98590.44;;;16.02
60615;BMP280;46444;45.590;5.284;2022-11-09T02:13:33;98586.41;;;16.04
60615;BMP280;46444;45.590;5.284;2022-11-09T02:16:01;98580.50;;;16.02
60615;BMP280;46444;45.590;5.284;2022-11-09T02:18:27;98591.28;;;16.02
60615;BMP280;46444;45.590;5.284;2022-11-09T02:20:54;98585.88;;;16.02
60615;BMP280;46444;45.590;5.284;2022-11-09T02:23:21;98584.81;;;15.98
60615;BMP280;46444;45.590;5.284;2022-11-09T02:26:00;98581.88;;;15.95
60615;BMP280;46444;45.590;5.284;2022-11-09T02:28:26;98587.78;;;15.97
60615;BMP280;46444;45.590;5.284;2022-11-09T02:30:53;98593.97;;;15.97
60615;BMP280;46444;45.590;5.284;2022-11-09T02:33:20;98595.06;;;15.96
60615;BMP280;46444;45.590;5.284;2022-11-09T02:35:45;98593.16;;;15.97
60615;BMP280;46444;45.590;5.284;2022-11-09T02:38:12;98597.22;;;15.94
60615;BMP280;46444;45.590;5.284;2022-11-09T02:40:40;98594.81;;;15.93
60615;BMP280;46444;45.590;5.284;2022-11-09T02:43:07;98603.41;;;15.95
60615;BMP280;46444;45.590;5.284;2022-11-09T02:45:33;98605.03;;;15.91
60615;BMP280;46444;45.590;5.284;2022-11-09T02:47:58;98606.69;;;15.87
60615;BMP280;46444;45.590;5.284;2022-11-09T02:50:24;98611.53;;;15.90
60615;BMP280;46444;45.590;5.284;2022-11-09T02:52:49;98613.13;;;15.91
60615;BMP280;46444;45.590;5.284;2022-11-09T02:55:14;98628.22;;;15.92
60615;BMP280;46444;45.590;5.284;2022-11-09T02:57:40;98626.09;;;15.89
60615;BMP280;46444;45.590;5.284;2022-11-09T03:00:06;98632.59;;;15.73
60615;BMP280;46444;45.590;5.284;2022-11-09T03:02:31;98631.56;;;15.44
60615;BMP280;46444;45.590;5.284;2022-11-09T03:04:57;98625.31;;;15.68
60615;BMP280;46444;45.590;5.284;2022-11-09T03:07:22;98635.59;;;15.51
60615;BMP280;46444;45.590;5.284;2022-11-09T03:09:47;98625.91;;;15.55
60615;BMP280;46444;45.590;5.284;2022-11-09T03:12:13;98627.78;;;15.60
60615;BMP280;46444;45.590;5.284;2022-11-09T03:14:55;98633.72;;;15.57
60615;BMP280;46444;45.590;5.284;2022-11-09T03:17:20;98642.31;;;15.69
60615;BMP280;46444;45.590;5.284;2022-11-09T03:19:45;98653.09;;;15.64
60615;BMP280;46444;45.590;5.284;2022-11-09T03:22:11;98662.78;;;15.50
60615;BMP280;46444;45.590;5.284;2022-11-09T03:24:36;98661.47;;;15.47
60615;BMP280;46444;45.590;5.284;2022-11-09T03:27:01;98668.16;;;15.65
60615;BMP280;46444;45.590;5.284;2022-11-09T03:29:27;98662.78;;;15.65
60615;BMP280;46444;45.590;5.284;2022-11-09T03:31:52;98660.63;;;15.67
60615;BMP280;46444;45.590;5.284;2022-11-09T03:34:17;98658.47;;;15.69
60615;BMP280;46444;45.590;5.284;2022-11-09T03:36:43;98646.34;;;15.71
60615;BMP280;46444;45.590;5.284;2022-11-09T03:39:08;98632.59;;;15.73
60615;BMP280;46444;45.590;5.284;2022-11-09T03:41:33;98652.25;;;15.73
60615;BMP280;46444;45.590;5.284;2022-11-09T03:43:59;98646.63;;;15.70
60615;BMP280;46444;45.590;5.284;2022-11-09T03:46:24;98659.00;;;15.71
60615;BMP280;46444;45.590;5.284;2022-11-09T03:48:50;98655.75;;;15.74
60615;BMP280;46444;45.590;5.284;2022-11-09T03:51:15;98650.91;;;15.71
60615;BMP280;46444;45.590;5.284;2022-11-09T03:53:40;98649.31;;;15.70
60615;BMP280;46444;45.590;5.284;2022-11-09T03:56:06;98676.78;;;15.67
60615;BMP280;46444;45.590;5.284;2022-11-09T03:58:31;98657.38;;;15.70
60615;BMP280;46444;45.590;5.284;2022-11-09T04:00:56;98667.34;;;15.69
60615;BMP280;46444;45.590;5.284;2022-11-09T04:03:22;98661.69;;;15.71
60615;BMP280;46444;45.590;5.284;2022-11-09T04:05:47;98672.22;;;15.67
60615;BMP280;46444;45.590;5.284;2022-11-09T04:08:12;98678.38;;;15.68
60615;BMP280;46444;45.590;5.284;2022-11-09T04:10:37;98673.00;;;15.68
60615;BMP280;46444;45.590;5.284;2022-11-09T04:13:03;98680.81;;;15.69
60615;BMP280;46444;45.590;5.284;2022-11-09T04:15:29;98687.03;;;15.70
60615;BMP280;46444;45.590;5.284;2022-11-09T04:17:58;98680.03;;;15.69
60615;BMP280;46444;45.590;5.284;2022-11-09T04:20:25;98687.03;;;15.70
60615;BMP280;46444;45.590;5.284;2022-11-09T04:22:56;98694.03;;;15.66
60615;BMP280;46444;45.590;5.284;2022-11-09T04:25:22;98702.63;;;15.68
60615;BMP280;46444;45.590;5.284;2022-11-09T04:27:47;98702.38;;;15.64
60615;BMP280;46444;45.590;5.284;2022-11-09T04:30:12;98699.94;;;15.68
60615;BMP280;46444;45.590;5.284;2022-11-09T04:32:38;98708.00;;;15.68
60615;BMP280;46444;45.590;5.284;2022-11-09T04:35:03;98701.84;;;15.72
60615;BMP280;46444;45.590;5.284;2022-11-09T04:37:29;98697.78;;;15.70
60615;BMP280;46444;45.590;5.284;2022-11-09T04:39:54;98702.91;;;15.66
60615;BMP280;46444;45.590;5.284;2022-11-09T04:42:19;98694.03;;;15.71
60615;BMP280;46444;45.590;5.284;2022-11-09T04:44:44;98696.72;;;15.66
60615;BMP280;46444;45.590;5.284;2022-11-09T04:47:10;98685.94;;;15.66
60615;BMP280;46444;45.590;5.284;2022-11-09T04:49:35;98684.06;;;15.61
60615;BMP280;46444;45.590;5.284;2022-11-09T04:52:01;98690.53;;;15.65
60615;BMP280;46444;45.590;5.284;2022-11-09T04:54:26;98690.81;;;15.64
60615;BMP280;46444;45.590;5.284;2022-11-09T04:56:53;98695.94;;;15.65
60615;BMP280;46444;45.590;5.284;2022-11-09T04:59:18;98694.84;;;15.66
60615;BMP280;46444;45.590;5.284;2022-11-09T05:01:43;98699.94;;;15.68
60615;BMP280;46444;45.590;5.284;2022-11-09T05:04:08;98689.72;;;15.65
60615;BMP280;46444;45.590;5.284;2022-11-09T05:06:34;98694.59;;;15.63
60615;BMP280;46444;45.590;5.284;2022-11-09T05:09:04;98695.09;;;15.65
60615;BMP280;46444;45.590;5.284;2022-11-09T05:11:30;98692.41;;;15.60
60615;BMP280;46444;45.590;5.284;2022-11-09T05:13:56;98678.41;;;15.58
60615;BMP280;46444;45.590;5.284;2022-11-09T05:16:21;98688.63;;;15.61
60615;BMP280;46444;45.590;5.284;2022-11-09T05:18:47;98697.28;;;15.53
60615;BMP280;46444;45.590;5.284;2022-11-09T05:21:12;98716.91;;;15.58
60615;BMP280;46444;45.590;5.284;2022-11-09T05:23:38;98706.97;;;15.59
60615;BMP280;46444;45.590;5.284;2022-11-09T05:26:22;98688.63;;;15.61
60615;BMP280;46444;45.590;5.284;2022-11-09T05:28:47;98697.28;;;15.63
60615;BMP280;46444;45.590;5.284;2022-11-09T05:31:12;98688.63;;;15.61
60615;BMP280;46444;45.590;5.284;2022-11-09T05:33:38;98678.16;;;15.49
60615;BMP280;46444;45.590;5.284;2022-11-09T05:36:03;98693.50;;;15.54
60615;BMP280;46444;45.590;5.284;2022-11-09T05:38:29;98690.28;;;15.47
60615;BMP280;46444;45.590;5.284;2022-11-09T05:40:54;98694.03;;;15.56
60615;BMP280;46444;45.590;5.284;2022-11-09T05:43:20;98688.94;;;15.54
60615;BMP280;46444;45.590;5.284;2022-11-09T05:45:46;98685.16;;;15.55
60615;BMP280;46444;45.590;5.284;2022-11-09T05:48:13;98685.69;;;15.57
60615;BMP280;46444;45.590;5.284;2022-11-09T05:50:38;98676.00;;;15.51
60615;BMP280;46444;45.590;5.284;2022-11-09T05:53:05;98674.38;;;15.55
60615;BMP280;46444;45.590;5.284;2022-11-09T05:55:30;98691.31;;;15.56
60615;BMP280;46444;45.590;5.284;2022-11-09T05:57:56;98697.53;;;15.51
60615;BMP280;46444;45.590;5.284;2022-11-09T06:00:21;98703.75;;;15.57
60615;BMP280;46444;45.590;5.284;2022-11-09T06:02:47;98701.03;;;15.52
60615;BMP280;46444;45.590;5.284;2022-11-09T06:05:13;98700.22;;;15.51
60615;BMP280;46444;45.590;5.284;2022-11-09T06:07:40;98705.34;;;15.58
60615;BMP280;46444;45.590;5.284;2022-11-09T06:10:07;98701.56;;;15.54
60615;BMP280;46444;45.590;5.284;2022-11-09T06:12:32;98708.56;;;15.60
60615;BMP280;46444;45.590;5.284;2022-11-09T06:14:58;98709.91;;;15.62
60615;BMP280;46444;45.590;5.284;2022-11-09T06:17:23;98703.75;;;15.57
60615;BMP280;46444;45.590;5.284;2022-11-09T06:19:48;98714.22;;;15.58
60615;BMP280;46444;45.590;5.284;2022-11-09T06:22:14;98719.88;;;15.62
60615;BMP280;46444;45.590;5.284;2022-11-09T06:24:39;98714.22;;;15.63
60615;BMP280;46444;45.590;5.284;2022-11-09T06:27:04;98721.78;;;15.61
60615;BMP280;46444;45.590;5.284;2022-11-09T06:29:30;98712.63;;;15.67
60615;BMP280;46444;45.590;5.284;2022-11-09T06:31:55;98708.00;;;15.68
60615;BMP280;46444;45.590;5.284;2022-11-09T06:34:21;98703.72;;;15.62
60615;BMP280;46444;45.590;5.284;2022-11-09T06:36:46;98711.25;;;15.65
60615;BMP280;46444;45.590;5.284;2022-11-09T06:39:12;98715.31;;;15.67
60615;BMP280;46444;45.590;5.284;2022-11-09T06:41:37;98711.78;;;15.67
60615;BMP280;46444;45.590;5.284;2022-11-09T06:44:03;98716.66;;;15.65
60615;BMP280;46444;45.590;5.284;2022-11-09T06:46:32;98719.09;;;15.66
60615;BMP280;46444;45.590;5.284;2022-11-09T06:48:57;98734.44;;;15.66
60615;BMP280;46444;45.590;5.284;2022-11-09T06:51:23;98730.13;;;15.65
60615;BMP280;46444;45.590;5.284;2022-11-09T06:53:48;98728.25;;;15.65
60615;BMP280;46444;45.590;5.284;2022-11-09T06:56:13;98732.56;;;15.66
60615;BMP280;46444;45.590;5.284;2022-11-09T06:58:39;98734.44;;;15.71
60615;BMP280;46444;45.590;5.284;2022-11-09T07:01:12;98728.50;;;15.69
60615;BMP280;46444;45.590;5.284;2022-11-09T07:03:38;98725.56;;;15.65
60615;BMP280;46444;45.590;5.284;2022-11-09T07:06:05;98737.94;;;15.71
60615;BMP280;46444;45.590;5.284;2022-11-09T07:08:31;98723.66;;;15.71
60615;BMP280;46444;45.590;5.284;2022-11-09T07:11:09;98727.44;;;15.65
60615;BMP280;46444;45.590;5.284;2022-11-09T07:13:35;98721.78;;;15.71
60615;BMP280;46444;45.590;5.284;2022-11-09T07:16:01;98725.78;;;15.74
60615;BMP280;46444;45.590;5.284;2022-11-09T07:18:26;98726.59;;;15.74
60615;BMP280;46444;45.590;5.284;2022-11-09T07:20:51;98727.13;;;15.76
60615;BMP280;46444;45.590;5.284;2022-11-09T07:23:17;98737.66;;;15.73
60615;BMP280;46444;45.590;5.284;2022-11-09T07:25:42;98733.59;;;15.75
60615;BMP280;46444;45.590;5.284;2022-11-09T07:28:09;98722.84;;;15.75
60615;BMP280;46444;45.590;5.284;2022-11-09T07:30:35;98727.69;;;15.78
60615;BMP280;46444;45.590;5.284;2022-11-09T07:33:02;98731.72;;;15.76
60615;BMP280;46444;45.590;5.284;2022-11-09T07:35:28;98739.25;;;15.74
60615;BMP280;46444;45.590;5.284;2022-11-09T07:37:53;98744.94;;;15.62
60615;BMP280;46444;45.590;5.284;2022-11-09T07:40:19;98742.78;;;15.69
60615;BMP280;46444;45.590;5.284;2022-11-09T07:42:45;98737.94;;;15.71
60615;BMP280;46444;45.590;5.284;2022-11-09T07:45:10;98737.66;;;15.68
60615;BMP280;46444;45.590;5.284;2022-11-09T07:47:36;98743.59;;;15.75
60615;BMP280;46444;45.590;5.284;2022-11-09T07:50:02;98739.56;;;15.77
60615;BMP280;46444;45.590;5.284;2022-11-09T07:52:27;98733.88;;;15.79
60615;BMP280;46444;45.590;5.284;2022-11-09T07:54:53;98748.44;;;15.83
60615;BMP280;46444;45.590;5.284;2022-11-09T07:57:18;98740.09;;;15.79
60615;BMP280;46444;45.590;5.284;2022-11-09T07:59:43;98739.56;;;15.77
60615;BMP280;46444;45.590;5.284;2022-11-09T08:02:09;98725.00;;;15.78
60615;BMP280;46444;45.590;5.284;2022-11-09T08:04:34;98734.13;;;15.82
60615;BMP280;46444;45.590;5.284;2022-11-09T08:07:00;98740.09;;;15.84
60615;BMP280;46444;45.590;5.284;2022-11-09T08:09:26;98735.22;;;15.76
60615;BMP280;46444;45.590;5.284;2022-11-09T08:11:52;98748.44;;;15.83
60615;BMP280;46444;45.590;5.284;2022-11-09T08:14:17;98750.31;;;15.87
60615;BMP280;46444;45.590;5.284;2022-11-09T08:16:42;98753.56;;;15.74
60615;BMP280;46444;45.590;5.284;2022-11-09T08:19:08;98744.13;;;15.77
60615;BMP280;46444;45.590;5.284;2022-11-09T08:21:35;98737.66;;;15.73
60615;BMP280;46444;45.590;5.284;2022-11-09T08:24:01;98743.31;;;15.76
60615;BMP280;46444;45.590;5.284;2022-11-09T08:26:27;98728.50;;;15.69
60615;BMP280;46444;45.590;5.284;2022-11-09T08:28:52;98741.97;;;15.64
60615;BMP280;46444;45.590;5.284;2022-11-09T08:31:17;98757.84;;;15.70
60615;BMP280;46444;45.590;5.284;2022-11-09T08:33:42;98754.09;;;15.66
60615;BMP280;46444;45.590;5.284;2022-11-09T08:36:13;98753.81;;;15.68
60615;BMP280;46444;45.590;5.284;2022-11-09T08:38:39;98744.38;;;15.75
60615;BMP280;46444;45.590;5.284;2022-11-09T08:41:04;98758.41;;;15.77
60615;BMP280;46444;45.590;5.284;2022-11-09T08:43:30;98757.34;;;15.83
60615;BMP280;46444;45.590;5.284;2022-11-09T08:45:55;98753.25;;;15.86
60615;BMP280;46444;45.590;5.284;2022-11-09T08:48:20;98758.66;;;15.91
60615;BMP280;46444;45.590;5.284;2022-11-09T08:50:51;98760.25;;;15.97
60615;BMP280;46444;45.590;5.284;2022-11-09T08:53:16;98741.94;;;15.89
60615;BMP280;46444;45.590;5.284;2022-11-09T08:55:42;98739.78;;;15.91
60615;BMP280;46444;45.590;5.284;2022-11-09T08:58:08;98746.78;;;15.97
60615;BMP280;46444;45.590;5.284;2022-11-09T09:00:33;98748.69;;;16.01
60615;BMP280;46444;45.590;5.284;2022-11-09T09:03:02;98747.03;;;16.00
60615;BMP280;46444;45.590;5.284;2022-11-09T09:05:27;98753.25;;;16.01
60615;BMP280;46444;45.590;5.284;2022-11-09T09:07:53;98756.47;;;16.03
60615;BMP280;46444;45.590;5.284;2022-11-09T09:10:18;98753.00;;;16.07
60615;BMP280;46444;45.590;5.284;2022-11-09T09:12:44;98754.03;;;16.06
60615;BMP280;46444;45.590;5.284;2022-11-09T09:15:09;98749.47;;;16.02
60615;BMP280;46444;45.590;5.284;2022-11-09T09:17:35;98744.59;;;16.09
60615;BMP280;46444;45.590;5.284;2022-11-09T09:20:00;98736.81;;;16.07
60615;BMP280;46444;45.590;5.284;2022-11-09T09:22:26;98738.69;;;16.02
60615;BMP280;46444;45.590;5.284;2022-11-09T09:24:51;98748.94;;;16.05
60615;BMP280;46444;45.590;5.284;2022-11-09T09:27:16;98744.38;;;15.95
60615;BMP280;46444;45.590;5.284;2022-11-09T09:29:42;98747.34;;;15.89
60615;BMP280;46444;45.590;5.284;2022-11-09T09:32:08;98745.69;;;16.03
60615;BMP280;46444;45.590;5.284;2022-11-09T09:34:34;98747.84;;;16.06
60615;BMP280;46444;45.590;5.284;2022-11-09T09:36:59;98753.00;;;16.07
60615;BMP280;46444;45.590;5.284;2022-11-09T09:39:25;98751.06;;;16.13
60615;BMP280;46444;45.590;5.284;2022-11-09T09:41:55;98751.59;;;16.15
60615;BMP280;46444;45.590;5.284;2022-11-09T09:44:31;98749.47;;;16.17
60615;BMP280;46444;45.590;5.284;2022-11-09T09:49:31;98753.75;;;16.23
60615;BMP280;46444;45.590;5.284;2022-11-09T09:52:09;98745.94;;;16.26
60615;BMP280;46444;45.590;5.284;2022-11-09T09:54:53;98747.53;;;16.32
60615;BMP280;46444;45.590;5.284;2022-11-09T09:57:21;98755.59;;;16.37
60615;BMP280;46444;45.590;5.284;2022-11-09T09:59:49;98749.94;;;16.39
60615;BMP280;46444;45.590;5.284;2022-11-09T10:04:46;98746.19;;;16.40
60615;BMP280;46444;45.590;5.284;2022-11-09T10:07:28;98749.94;;;16.39
60615;BMP280;46444;45.590;5.284;2022-11-09T10:10:36;98741.31;;;16.42
60615;BMP280;46444;45.590;5.284;2022-11-09T10:16:07;98749.41;;;16.42
60615;BMP280;46444;45.590;5.284;2022-11-09T10:21:52;98756.41;;;16.43
60615;BMP280;46444;45.590;5.284;2022-11-09T10:26:58;98755.31;;;16.44
60615;BMP280;46444;45.590;5.284;2022-11-09T10:29:30;98752.63;;;16.44
60615;BMP280;46444;45.590;5.284;2022-11-09T10:32:11;98761.53;;;16.49
60615;BMP280;46444;45.590;5.284;2022-11-09T10:37:14;98761.78;;;16.53
60615;BMP280;46444;45.590;5.284;2022-11-09T10:39:46;98749.38;;;16.52
60615;BMP280;46444;45.590;5.284;2022-11-09T10:42:13;98761.22;;;16.56
60615;BMP280;46444;45.590;5.284;2022-11-09T10:44:38;98756.91;;;16.60
60615;BMP280;46444;45.590;5.284;2022-11-09T10:47:15;98766.09;;;16.59
60615;BMP280;46444;45.590;5.284;2022-11-09T10:49:41;98749.59;;;16.65
60615;BMP280;46444;45.590;5.284;2022-11-09T10:52:29;98747.13;;;16.69
60615;BMP280;46444;45.590;5.284;2022-11-09T10:55:25;98747.38;;;16.77
60615;BMP280;46444;45.590;5.284;2022-11-09T10:57:54;98749.28;;;16.77
60615;BMP280;46444;45.590;5.284;2022-11-09T11:00:21;98744.66;;;16.82
60615;BMP280;46444;45.590;5.284;2022-11-09T11:02:47;98753.53;;;16.88
60615;BMP280;46444;45.590;5.284;2022-11-09T11:07:44;98749.50;;;16.90
60615;BMP280;46444;45.590;5.284;2022-11-09T11:12:42;98738.38;;;16.92
60615;BMP280;46444;45.590;5.284;2022-11-09T11:15:41;98750.25;;;16.96
60615;BMP280;46444;45.590;5.284;2022-11-09T11:18:23;98748.88;;;16.98
60615;BMP280;46444;45.590;5.284;2022-11-09T11:21:12;98750.25;;;16.96
60615;BMP280;46444;45.590;5.284;2022-11-09T11:23:38;98757.00;;;16.93
60615;BMP280;46444;45.590;5.284;2022-11-09T11:31:43;98743.53;;;16.88
60615;BMP280;46444;45.590;5.284;2022-11-09T11:34:12;98751.63;;;16.93
60615;BMP280;46444;45.590;5.284;2022-11-09T11:36:52;98747.63;;;16.81
60615;BMP280;46444;45.590;5.284;2022-11-09T11:45:14;98729.28;;;16.83
60615;BMP280;46444;45.590;5.284;2022-11-09T11:53:40;98715.22;;;16.81
60615;BMP280;46444;45.590;5.284;2022-11-09T12:01:43;98691.69;;;16.96
60615;BMP280;46444;45.590;5.284;2022-11-09T12:04:25;98703.28;;;16.97
60615;BMP280;46444;45.590;5.284;2022-11-09T12:09:49;98696.47;;;17.04
60615;BMP280;46444;45.590;5.284;2022-11-09T12:12:41;98695.66;;;17.04
60615;BMP280;46444;45.590;5.284;2022-11-09T12:21:17;98680.88;;;16.96
60615;BMP280;46444;45.590;5.284;2022-11-09T12:30:14;98697.38;;;16.90
60615;BMP280;46444;45.590;5.284;2022-11-09T12:32:48;98749.81;;;16.74
60615;BMP280;46444;45.590;5.284;2022-11-09T12:38:04;98781.50;;;16.43
60615;BMP280;46444;45.590;5.284;2022-11-09T12:40:43;98800.13;;;16.40
60615;BMP280;46444;45.590;5.284;2022-11-09T12:43:20;98798.56;;;15.99
60615;BMP280;46444;45.590;5.284;2022-11-09T12:46:10;98797.75;;;15.78
60615;BMP280;46444;45.590;5.284;2022-11-09T12:51:15;98807.16;;;15.71
60615;BMP280;46444;45.590;5.284;2022-11-09T12:53:40;98802.31;;;15.58
60615;BMP280;46444;45.590;5.284;2022-11-09T12:56:15;98794.53;;;15.71
60615;BMP280;46444;45.590;5.284;2022-11-09T12:58:43;98791.00;;;15.61
60615;BMP280;46444;45.590;5.284;2022-11-09T13:03:56;98803.94;;;15.69
60615;BMP280;46444;45.590;5.284;2022-11-09T13:06:29;98812.00;;;15.59
60615;BMP280;46444;45.590;5.284;2022-11-09T13:09:03;98800.16;;;15.70
60615;BMP280;46444;45.590;5.284;2022-11-09T13:11:48;98809.31;;;15.64
60615;BMP280;46444;45.590;5.284;2022-11-09T13:14:33;98819.84;;;15.65
60615;BMP280;46444;45.590;5.284;2022-11-09T13:19:58;98829.00;;;15.84
60615;BMP280;46444;45.590;5.284;2022-11-09T13:24:58;98830.88;;;15.94
60615;BMP280;46444;45.590;5.284;2022-11-09T13:27:43;98820.63;;;15.96
60615;BMP280;46444;45.590;5.284;2022-11-09T13:33:28;98821.72;;;16.00
60615;BMP280;46444;45.590;5.284;2022-11-09T13:38:21;98813.09;;;15.88
60615;BMP280;46444;45.590;5.284;2022-11-09T13:44:13;98822.25;;;15.97
60615;BMP280;46444;45.590;5.284;2022-11-09T13:46:39;98836.81;;;15.96
60615;BMP280;46444;45.590;5.284;2022-11-09T13:52:01;98821.47;;;15.96
60615;BMP280;46444;45.590;5.284;2022-11-09T13:54:30;98817.41;;;15.94
60615;BMP280;46444;45.590;5.284;2022-11-09T13:56:56;98814.44;;;15.75
60615;BMP280;46444;45.590;5.284;2022-11-09T13:59:27;98801.78;;;15.71
60615;BMP280;46444;45.590;5.284;2022-11-09T14:01:56;98800.69;;;15.77
60615;BMP280;46444;45.590;5.284;2022-11-09T14:04:38;98809.03;;;15.75
60615;BMP280;46444;45.590;5.284;2022-11-09T14:12:56;98814.44;;;15.75
60615;BMP280;46444;45.590;5.284;2022-11-09T14:21:47;98858.88;;;15.73
60615;BMP280;46444;45.590;5.284;2022-11-09T14:24:27;98866.72;;;15.74
60615;BMP280;46444;45.590;5.284;2022-11-09T14:29:36;98861.31;;;15.74
60615;BMP280;46444;45.590;5.284;2022-11-09T14:32:22;98864.84;;;15.75
60615;BMP280;46444;45.590;5.284;2022-11-09T14:34:48;98878.31;;;15.75
60615;BMP280;46444;45.590;5.284;2022-11-09T14:37:13;98888.53;;;15.78
60615;BMP280;46444;45.590;5.284;2022-11-09T14:39:39;98886.13;;;15.71
60615;BMP280;46444;45.590;5.284;2022-11-09T14:42:05;98897.69;;;15.77
60615;BMP280;46444;45.590;5.284;2022-11-09T14:44:34;98897.69;;;15.77
60615;BMP280;46444;45.590;5.284;2022-11-09T14:47:05;98899.31;;;15.78
60615;BMP280;46444;45.590;5.284;2022-11-09T14:49:34;98905.22;;;15.80
60615;BMP280;46444;45.590;5.284;2022-11-09T14:52:00;98910.63;;;15.80
60615;BMP280;46444;45.590;5.284;2022-11-09T14:54:26;98914.97;;;15.81
60615;BMP280;46444;45.590;5.284;2022-11-09T14:56:53;98912.78;;;15.78
60615;BMP280;46444;45.590;5.284;2022-11-09T14:59:30;98912.25;;;15.71
60615;BMP280;46444;45.590;5.284;2022-11-09T15:02:06;98916.28;;;15.73
60615;BMP280;46444;45.590;5.284;2022-11-09T15:05:02;98918.16;;;15.73
60615;BMP280;46444;45.590;5.284;2022-11-09T15:07:32;98916.03;;;15.75
60615;BMP280;46444;45.590;5.284;2022-11-09T15:10:01;98922.22;;;15.75
60615;BMP280;46444;45.590;5.284;2022-11-09T15:12:27;98912.25;;;15.76
60615;BMP280;46444;45.590;5.284;2022-11-09T15:15:03;98916.03;;;15.75
60615;BMP280;46444;45.590;5.284;2022-11-09T15:17:31;98915.22;;;15.74
60615;BMP280;46444;45.590;5.284;2022-11-09T15:25:57;98921.13;;;15.71
60615;BMP280;46444;45.590;5.284;2022-11-09T15:28:24;98922.78;;;15.77
60615;BMP280;46444;45.590;5.284;2022-11-09T15:36:19;98899.28;;;15.68
60615;BMP280;46444;45.590;5.284;2022-11-09T15:38:56;98907.38;;;15.68
60615;BMP280;46444;45.590;5.284;2022-11-09T15:41:23;98903.88;;;15.67
60615;BMP280;46444;45.590;5.284;2022-11-09T15:43:48;98901.19;;;15.67
60615;BMP280;46444;45.590;5.284;2022-11-09T15:46:15;98902.53;;;15.65
60615;BMP280;46444;45.590;5.284;2022-11-09T15:48:41;98912.22;;;15.66
60615;BMP280;46444;45.590;5.284;2022-11-09T15:51:08;98915.47;;;15.63
60615;BMP280;46444;45.590;5.284;2022-11-09T15:53:34;98924.63;;;15.67
60615;BMP280;46444;45.590;5.284;2022-11-09T15:55:59;98921.38;;;15.65
60615;BMP280;46444;45.590;5.284;2022-11-09T15:58:25;98918.16;;;15.63
60615;BMP280;46444;45.590;5.284;2022-11-09T16:00:50;98923.81;;;15.61
60615;BMP280;46444;45.590;5.284;2022-11-09T16:03:15;98927.28;;;15.62
60615;BMP280;46444;45.590;5.284;2022-11-09T16:05:43;98925.41;;;15.62
60615;BMP280;46444;45.590;5.284;2022-11-09T16:08:08;98920.84;;;15.63
60615;BMP280;46444;45.590;5.284;2022-11-09T16:10:34;98921.09;;;15.61
60615;BMP280;46444;45.590;5.284;2022-11-09T16:13:05;98916.81;;;15.60
60615;BMP280;46444;45.590;5.284;2022-11-09T16:15:31;98919.22;;;15.57
60615;BMP280;46444;45.590;5.284;2022-11-09T16:17:57;98928.34;;;15.56
60615;BMP280;46444;45.590;5.284;2022-11-09T16:20:22;98916.22;;;15.58
60615;BMP280;46444;45.590;5.284;2022-11-09T16:22:47;98912.19;;;15.56
60615;BMP280;46444;45.590;5.284;2022-11-09T16:25:14;98912.47;;;15.54
60615;BMP280;46444;45.590;5.284;2022-11-09T16:27:40;98918.13;;;15.53
60615;BMP280;46444;45.590;5.284;2022-11-09T16:30:07;98911.38;;;15.50